Aviation Digital Data Service (ADDS)

Output produced by METARs form (1505 UTC 20 March 2019)
found at http://www.aviationweather.gov/metar/data/
 
Forecast for: NZQN (QUEENSTOWN , NZ)
Text: TAF NZQN 201050Z 2011/2105 VRB02KT 9999 FEW060
Forecast period: 1100 to 2300 UTC 20 March 2019
Forecast type: FROM: standard forecast or significant change
Winds: variable direction winds at 2 MPH (2 knots; 1.0 m/s)
Visibility: 6 or more miles 10+ km)
Ceiling: at least 12,000 feet AGL
Clouds: few clouds at 6000 feet AGL
Weather: no significant weather forecast for this period
Text: PROB30 2016/2020 0500 FG
Forecast period: 1600 to 2000 UTC 20 March 2019
Forecast type: PROBABLE: 30 percent likelihood of the following during this time
Visibility: 0.31 miles (0.50 km)
Ceiling: unknown
Clouds: missing
Weather: FG  (fog)
Text: BECMG 2023/2101 26010KT
Forecast period: 2300 UTC 20 March 2019 to 0500 UTC 21 March 2019
Forecast type: BECOMING: Conditions expected to become as follows by 0100 UTC 21 March 2019
Winds: from the W (260 degrees) at 12 MPH (10 knots; 5.1 m/s)
Visibility: 6 or more miles 10+ km)
Ceiling: at least 12,000 feet AGL
Clouds: few clouds at 6000 feet AGL
Weather: no significant weather forecast for this period